Flight Track Log - Related Links

Times and Time Zones

All times are in EDT time to prevent confusion due to time zone crossing. See the N600TR flight status page for this flight to view local times or setup timezone preferences in your user account.

Time Position Orientation Groundspeed Altitude Reporting Facility
EDT Latitude Longitude Course Direction KTS MPH feet Rate Location/Type
Wed 08:37:40 PM 33.6500 -84.3833 24° Northeast 160 184 2,600  Level Atlanta TRACON
Wed 08:38:40 PM 33.6667 -84.3167 73° East 257 296 4,500 2,300 Climbing Atlanta TRACON
Wed 08:39:40 PM 33.7333 -84.2667 32° Northeast 277 319 7,200 2,125 Climbing Atlanta TRACON
Wed 08:41:00 PM 34.1463 -84.3077 North  Level FlightAware Approximate
Wed 08:41:52 PM 33.9131 -84.2742 358° North 301 346 11,300  Level Atlanta Center
Wed 08:42:00 PM 34.2458 -84.2753 24° Northeast  Level FlightAware Approximate
Wed 08:42:52 PM 34.0131 -84.2819 356° North 342 394 13,900  Level Atlanta Center
Wed 08:43:52 PM 34.0986 -84.3197 340° North 345 397 15,900 2,050 Climbing Atlanta Center
Wed 08:44:52 PM 34.2072 -84.3628 342° North 368 423 18,000 1,900 Climbing Atlanta Center
Wed 08:45:52 PM 34.3114 -84.3983 344° North 379 436 19,700 1,600 Climbing Atlanta Center
Wed 08:46:52 PM 34.4178 -84.4242 349° North 379 436 21,200 1,600 Climbing Atlanta Center
Wed 08:47:52 PM 34.5303 -84.4397 354° North 393 452 22,900 900 Climbing Atlanta Center
Wed 08:48:52 PM 34.6328 -84.3644 31° Northeast 397 457 23,000 50 Climbing Atlanta Center
Wed 08:49:52 PM 34.7186 -84.2486 48° Northeast 403 464 23,000  Level Atlanta Center
Wed 08:50:52 PM 34.7897 -84.1450 50° Northeast 421 484 23,000  Level Atlanta Center
Wed 08:51:52 PM 34.8692 -84.0211 52° Northeast 438 504 23,000  Level Atlanta Center
Wed 08:52:52 PM 34.9400 -83.8817 58° Northeast 459 528 23,000 -350 Level Atlanta Center
Wed 08:53:52 PM 34.9708 -83.7294 76° East 461 531 22,300 -500 Descending Atlanta Center
Wed 08:54:52 PM 35.0142 -83.5822 70° East 456 525 22,000 -150 Descending Atlanta Center
Wed 08:55:52 PM 35.0556 -83.4500 69° East 439 505 22,000 -600 Level Atlanta Center
Wed 08:56:52 PM 35.0922 -83.3203 71° East 417 480 20,800 -1,950 Descending Atlanta Center
Wed 08:57:52 PM 35.1353 -83.1753 70° East 426 490 18,100 -2,800 Descending Atlanta Center
Wed 08:58:52 PM 35.1739 -83.0403 71° East 426 490 15,200 -3,000 Descending Atlanta Center
Wed 08:59:52 PM 35.2144 -82.9150 68° East 416 479 12,100 -2,150 Descending Atlanta Center
Wed 09:00:52 PM 35.2467 -82.8003 71° East 384 442 10,900 -1,250 Descending Atlanta Center
Wed 09:01:52 PM 35.2436 -82.6908 92° East 320 368 9,600 -1,450 Descending Atlanta Center
Wed 09:02:52 PM 35.2236 -82.5997 105° East 293 337 8,000 6,700 Descending Atlanta Center
Wed 09:03:52 PM 35.1892 -82.5114 115° Southeast 261 300 23,000 -1,200 Climbing Atlanta Center
Wed 09:04:52 PM 35.2303 -82.4650 43° Northeast 186 214 5,600 -8,900 Descending Atlanta Center
Wed 09:05:52 PM 35.2700 -82.4564 10° North 149 171 5,200 8,700 Descending Atlanta Center
Wed 09:06:52 PM 35.3119 -82.4886 328° Northwest 149 171 23,000 8,900 Climbing Atlanta Center
Wed 09:07:52 PM 35.3200 -82.4581 72° East 149 171 23,000  Level Atlanta Center
Wed 09:09:00 PM 35.3714 -82.3523 68° East  Level FlightAware Approximate
Wed 09:16:00 PM 35.4333 -82.5333 287° West  Level FlightAware Approximate
Wed 09:17:00 PM 35.4362 -82.5418 287° West  Level Estimated
Wed 09:18:00 PM 35.4362 -82.5418 287° West  Level Estimated
Wed 09:19:00 PM 35.4362 -82.5418 287° West  Level Estimated

Login

Don't have an account? Register now (free) for customized features, flight alerts, and more!